الصفحة الرئيسية
METAR-TAF:

METAR-TAF

مطار :

Kingman, أريزونا, الولايات المتحدة

دائرة عرض: 35-15-28N, خط طول: 113-55-59W, ارتفاع: 1050 متر

مراقبة الطقس الحالي

تاريخ ووقت الإصدار 20 دقيقة قبل الساعة 21:51UTC
ريح 21 عقدة من الجنوب تتزايد حتى 25 عقدة
درجة الحرارة 16°درجة مئوية
الرطوبة 45%
ضغط 1015 hPa
الرؤية: 16.1 كم
سماء صافية

METAR: KIGM 232151Z AUTO 19021G25KT 10SM CLR 16/04 A2996 RMK AO2 PK WND 21026/2112 SLP105 T01610044

زمن: 15:11 (22:11 UTC)


TAF: مفقودة

أرصاد الطقس والتوقعات من أكثر من 4000 مطار (تقارير الطقس للمطار METAR والتنبؤ بالطقس بالمطارTAF).

المحطات المتاحة هي النقط الصفراء والحمراء على الخريطة.

حرك المؤشر فوق النقطة لمعرفة اسم المحطة.

ثم انقر لمعرفة أرصاد وتوقعات الطقس.

لتغيير الخارطة: اضغط على الأزرار الخضراء مع رمز الصليب الأسود للتكبير. على الزر الأخضر مع شرطة للتصغير، أو على الأسهم الخضراء للخرائط المجاورة.


METAR-TAF: